Time;durP1;ratioP1;P1;durP2;ratioP2;P2;SDS_P1;SDS_P2;PMS_P1;PMS_P2;Temp;Humidity;BMP_temperature;BMP_pressure;BME280_temperature;BME280_humidity;BME280_pressure;Samples;Min_cycle;Max_cycle;Signal;HPM_P1;HPM_P2
2022/10/15 00:02:07;;;;;;;44.75;30.90;;;;;;;18.75;59.99;100779.06;5030735;28;20025;-67
2022/10/15 00:04:32;;;;;;;40.65;29.27;;;;;;;18.73;59.76;100772.28;5018899;28;20038;-69
2022/10/15 00:06:58;;;;;;;52.10;31.70;;;;;;;18.69;59.70;100772.00;5023011;28;20060;-68
2022/10/15 00:09:24;;;;;;;46.78;29.83;;;;;;;18.74;59.44;100776.63;5030381;28;20086;-67
2022/10/15 00:11:49;;;;;;;46.90;29.95;;;;;;;18.64;59.39;100780.22;5029942;28;20048;-69
2022/10/15 00:14:14;;;;;;;54.30;32.35;;;;;;;18.62;60.08;100765.25;5019733;28;20045;-67
2022/10/15 00:16:40;;;;;;;53.90;32.63;;;;;;;18.51;60.66;100766.41;5019975;28;20069;-67
2022/10/15 00:19:05;;;;;;;57.05;32.85;;;;;;;18.50;60.85;100760.13;5021038;28;20041;-68
2022/10/15 00:21:31;;;;;;;52.03;33.33;;;;;;;18.61;60.57;100763.63;5019165;28;20030;-68
2022/10/15 00:23:57;;;;;;;59.42;34.15;;;;;;;18.39;60.96;100756.63;5016738;28;20065;-67
2022/10/15 00:26:24;;;;;;;60.78;34.80;;;;;;;18.37;61.49;100766.16;5010980;28;20092;-68
2022/10/15 00:28:52;;;;;;;64.68;33.35;;;;;;;18.61;60.41;100766.34;4993429;28;20037;-68
2022/10/15 00:31:19;;;;;;;67.57;35.35;;;;;;;18.38;61.55;100759.59;5010695;28;20553;-69
2022/10/15 00:33:47;;;;;;;108.57;35.83;;;;;;;18.61;60.30;100767.19;5028745;28;20080;-68
2022/10/15 00:36:16;;;;;;;90.40;35.65;;;;;;;18.68;60.30;100772.28;5030398;28;20041;-68
2022/10/15 00:38:41;;;;;;;105.00;34.38;;;;;;;18.61;60.30;100769.91;5033546;28;20096;-68
2022/10/15 00:41:11;;;;;;;127.05;34.25;;;;;;;18.34;61.69;100763.97;5034764;28;20041;-68
2022/10/15 00:43:38;;;;;;;103.53;34.30;;;;;;;18.53;61.05;100759.59;5034694;28;20161;-68
2022/10/15 00:46:03;;;;;;;158.00;33.95;;;;;;;18.62;60.63;100757.91;5036651;28;20505;-67
2022/10/15 00:48:30;;;;;;;175.40;33.33;;;;;;;18.44;61.49;100758.53;5034558;28;20057;-68
2022/10/15 00:50:56;;;;;;;143.32;32.78;;;;;;;18.43;61.52;100756.91;5034230;28;20085;-68
2022/10/15 00:53:21;;;;;;;99.80;32.10;;;;;;;18.47;61.20;100765.34;5034343;28;20347;-67
2022/10/15 00:55:49;;;;;;;116.53;32.03;;;;;;;18.60;60.71;100754.66;5034701;28;20059;-68
2022/10/15 00:58:21;;;;;;;73.15;31.73;;;;;;;18.83;60.50;100740.34;5034378;28;20041;-68
2022/10/15 01:00:46;;;;;;;71.50;31.55;;;;;;;18.90;60.49;100743.59;5034395;28;20044;-70
2022/10/15 01:03:12;;;;;;;62.60;31.90;;;;;;;18.83;60.50;100747.72;5032572;28;20037;-68
2022/10/15 01:05:38;;;;;;;53.85;32.72;;;;;;;18.56;61.63;100745.41;5033998;28;20041;-68
2022/10/15 01:08:04;;;;;;;53.70;32.25;;;;;;;18.33;62.47;100746.88;5016187;28;20040;-67
2022/10/15 01:10:44;;;;;;;50.30;31.60;;;;;;;18.79;60.69;100744.72;5033979;28;20034;-66
2022/10/15 01:13:27;;;;;;;52.97;33.90;;;;;;;18.63;61.34;100748.66;5034116;28;20048;-69
2022/10/15 01:16:00;;;;;;;58.97;32.67;;;;;;;18.71;61.26;100749.97;5033805;28;20045;-68
2022/10/15 01:18:35;;;;;;;56.05;32.97;;;;;;;18.72;61.20;100760.56;5033038;28;20029;-68
2022/10/15 01:21:07;;;;;;;50.53;31.08;;;;;;;18.74;61.06;100757.56;5032524;28;20037;-69
2022/10/15 01:24:09;;;;;;;58.20;31.92;;;;;;;18.68;60.92;100743.19;5032755;28;20096;-67
2022/10/15 01:27:10;;;;;;;54.50;33.33;;;;;;;18.40;61.95;100741.91;5032645;28;20037;-67
2022/10/15 01:29:39;;;;;;;52.70;31.52;;;;;;;18.85;60.85;100740.88;5032752;28;20493;-68
2022/10/15 01:32:15;;;;;;;49.00;31.27;;;;;;;18.96;60.44;100736.19;5032902;28;20108;-67
2022/10/15 01:34:55;;;;;;;49.38;30.75;;;;;;;19.05;60.47;100743.47;5033072;28;20049;-67
2022/10/15 01:37:35;;;;;;;52.35;32.72;;;;;;;19.00;60.65;100738.09;5032518;28;20062;-68
2022/10/15 01:40:25;;;;;;;54.90;33.22;;;;;;;18.48;62.45;100737.00;5032513;28;20047;-68
2022/10/15 01:42:55;;;;;;;58.47;32.20;;;;;;;18.38;62.77;100730.50;5034573;28;20037;-66
2022/10/15 01:45:47;;;;;;;58.72;34.00;;;;;;;18.39;62.72;100740.31;5032327;28;20982;-69
2022/10/15 01:48:13;;;;;;;61.03;33.85;;;;;;;18.84;60.92;100738.44;4970701;28;20038;-68
2022/10/15 01:50:45;;;;;;;58.10;34.60;;;;;;;19.00;60.49;100734.53;4970054;28;20126;-68
2022/10/15 01:53:16;;;;;;;62.15;35.53;;;;;;;18.91;60.61;100725.31;4954868;28;20373;-67
2022/10/15 01:55:44;;;;;;;56.03;34.42;;;;;;;18.93;60.79;100736.75;4971042;28;20055;-68
2022/10/15 01:58:11;;;;;;;54.92;34.90;;;;;;;18.91;60.25;100730.78;4986687;28;20039;-68
2022/10/15 02:00:40;;;;;;;56.20;33.70;;;;;;;18.97;60.15;100722.28;4970846;28;20459;-67
2022/10/15 02:03:05;;;;;;;52.55;32.65;;;;;;;18.87;60.00;100729.75;4970386;28;20042;-68
2022/10/15 02:05:39;;;;;;;54.38;32.63;;;;;;;18.83;60.43;100725.94;4971862;28;20054;-66
2022/10/15 02:08:27;;;;;;;58.80;34.50;;;;;;;18.78;60.31;100718.63;4990213;28;20169;-66
2022/10/15 02:11:04;;;;;;;66.07;35.22;;;;;;;18.97;59.79;100710.56;4990199;28;20050;-67
2022/10/15 02:13:49;;;;;;;60.80;34.25;;;;;;;18.69;60.15;100714.06;4989813;28;20054;-66
2022/10/15 02:16:35;;;;;;;60.10;35.42;;;;;;;18.62;60.42;100708.91;4990084;28;20045;-67
2022/10/15 02:20:02;;;;;;;69.57;37.40;;;;;;;18.78;60.11;100707.72;4989612;28;20090;-67
2022/10/15 02:22:35;;;;;;;63.70;36.05;;;;;;;18.75;59.67;100713.72;4856827;29;20082;-67
2022/10/15 02:25:08;;;;;;;60.35;35.67;;;;;;;18.67;60.07;100705.34;4864507;29;20082;-67
2022/10/15 02:27:36;;;;;;;62.00;36.55;;;;;;;18.17;62.13;100707.22;4875291;29;20049;-68
2022/10/15 02:30:05;;;;;;;62.58;36.67;;;;;;;18.27;61.38;100703.63;4875210;29;20410;-69
2022/10/15 02:32:32;;;;;;;74.30;36.70;;;;;;;18.45;60.73;100711.19;4874950;29;20073;-67
2022/10/15 02:34:59;;;;;;;72.72;38.50;;;;;;;18.50;60.77;100700.25;4875675;29;20543;-67
2022/10/15 02:37:28;;;;;;;65.47;36.28;;;;;;;18.45;60.15;100691.31;4875186;29;20048;-69
2022/10/15 02:39:53;;;;;;;70.72;37.90;;;;;;;17.91;61.72;100692.06;4890319;29;20041;-67
2022/10/15 02:42:19;;;;;;;72.07;37.97;;;;;;;18.11;61.63;100694.72;4874970;29;20049;-66
2022/10/15 02:44:45;;;;;;;69.13;38.67;;;;;;;18.20;61.14;100698.47;4890083;29;20100;-68
2022/10/15 02:47:10;;;;;;;71.95;39.65;;;;;;;18.09;61.31;100688.75;4875365;29;20499;-68
2022/10/15 02:49:36;;;;;;;69.45;38.05;;;;;;;18.17;60.90;100690.06;4874738;29;20118;-68
2022/10/15 02:52:02;;;;;;;65.68;37.58;;;;;;;18.24;60.95;100694.09;4874872;29;20065;-69
2022/10/15 02:54:27;;;;;;;64.25;35.80;;;;;;;18.17;60.59;100696.31;4931057;29;20044;-67
2022/10/15 02:56:53;;;;;;;66.00;38.40;;;;;;;18.29;60.46;100690.56;4931345;29;20412;-67
2022/10/15 02:59:18;;;;;;;67.35;38.78;;;;;;;18.23;60.33;100694.38;5006177;28;20042;-67
2022/10/15 03:01:44;;;;;;;66.13;37.38;;;;;;;18.03;60.72;100687.13;5030681;28;20477;-67
2022/10/15 03:04:10;;;;;;;75.43;38.08;;;;;;;18.24;60.33;100682.41;5030935;28;20098;-66
2022/10/15 03:06:35;;;;;;;75.00;41.03;;;;;;;18.35;59.50;100684.81;5046499;28;20090;-67
2022/10/15 03:09:03;;;;;;;70.15;39.17;;;;;;;18.32;59.88;100684.53;5030771;28;20037;-66
2022/10/15 03:11:29;;;;;;;78.68;42.28;;;;;;;17.89;61.88;100686.09;5030827;28;20486;-68
2022/10/15 03:13:54;;;;;;;87.40;42.03;;;;;;;17.91;61.91;100677.66;5031235;28;20026;-67
2022/10/15 03:16:20;;;;;;;82.55;41.80;;;;;;;17.88;62.21;100683.66;5031138;28;20511;-66
2022/10/15 03:18:45;;;;;;;88.35;43.70;;;;;;;17.70;63.00;100674.19;5031012;28;20029;-67
2022/10/15 03:21:11;;;;;;;92.10;44.58;;;;;;;17.99;62.23;100674.34;5029401;28;20045;-67
2022/10/15 03:23:36;;;;;;;92.13;45.92;;;;;;;18.52;60.71;100675.47;5030520;28;20033;-68
2022/10/15 03:26:01;;;;;;;98.78;46.03;;;;;;;18.57;60.81;100664.59;5031086;28;20044;-68
2022/10/15 03:28:27;;;;;;;97.22;47.15;;;;;;;18.88;59.96;100666.81;5030654;28;20033;-68
2022/10/15 03:30:52;;;;;;;96.53;49.13;;;;;;;18.85;60.31;100663.84;5030668;28;20048;-67
2022/10/15 03:33:18;;;;;;;101.88;47.80;;;;;;;18.89;59.61;100662.97;5030545;28;20038;-67
2022/10/15 03:35:44;;;;;;;95.00;44.75;;;;;;;18.99;59.89;100662.91;5030563;28;20452;-67
2022/10/15 03:38:09;;;;;;;93.82;46.85;;;;;;;19.10;59.31;100658.19;5031031;28;20033;-66
2022/10/15 03:40:35;;;;;;;95.43;47.67;;;;;;;18.91;59.78;100651.78;5030448;28;20033;-68
2022/10/15 03:43:00;;;;;;;98.13;47.70;;;;;;;19.09;59.40;100660.09;5030436;28;20041;-68
2022/10/15 03:45:26;;;;;;;97.75;47.55;;;;;;;18.84;60.35;100656.75;5030544;28;20258;-68
2022/10/15 03:47:51;;;;;;;97.90;47.15;;;;;;;18.54;61.40;100657.78;5030384;28;20103;-67
2022/10/15 03:50:17;;;;;;;97.10;47.45;;;;;;;18.15;62.75;100655.00;5030258;28;20029;-68
2022/10/15 03:52:43;;;;;;;104.68;46.85;;;;;;;18.51;61.53;100652.09;5031147;28;20026;-68
2022/10/15 03:55:09;;;;;;;103.30;48.97;;;;;;;18.38;61.48;100646.16;5030206;28;20058;-67
2022/10/15 03:57:36;;;;;;;95.53;49.20;;;;;;;18.55;61.34;100653.16;5030547;28;20197;-67
2022/10/15 04:00:02;;;;;;;99.30;48.85;;;;;;;18.52;60.92;100653.72;5030298;28;20049;-66
2022/10/15 04:02:30;;;;;;;93.07;46.20;;;;;;;18.38;60.90;100643.44;5030151;28;20041;-66
2022/10/15 04:04:55;;;;;;;95.60;48.78;;;;;;;18.34;61.72;100642.38;5030764;28;20037;-67
2022/10/15 04:07:21;;;;;;;91.35;48.05;;;;;;;18.21;61.90;100645.72;5030040;28;20041;-68
2022/10/15 04:09:47;;;;;;;89.88;46.80;;;;;;;18.18;61.91;100645.47;5030190;28;20460;-67
2022/10/15 04:12:13;;;;;;;97.63;48.22;;;;;;;18.27;61.00;100643.78;5031286;28;20037;-67
2022/10/15 04:14:39;;;;;;;89.90;45.90;;;;;;;18.19;61.35;100641.63;5033987;28;20080;-67
2022/10/15 04:17:04;;;;;;;92.82;46.55;;;;;;;18.15;61.46;100640.56;5034556;28;20072;-67
2022/10/15 04:19:30;;;;;;;104.05;48.10;;;;;;;18.08;61.58;100632.72;5034119;28;20044;-69
2022/10/15 04:21:56;;;;;;;97.10;47.85;;;;;;;18.19;61.00;100642.47;5033909;28;20544;-68
2022/10/15 04:24:21;;;;;;;100.32;50.45;;;;;;;18.12;60.99;100641.16;5033930;28;20550;-69
2022/10/15 04:26:47;;;;;;;102.95;49.15;;;;;;;18.14;61.23;100644.41;5033847;28;20112;-68
2022/10/15 04:29:12;;;;;;;113.30;49.47;;;;;;;18.10;61.81;100646.06;5034301;28;20036;-67
2022/10/15 04:31:38;;;;;;;129.88;52.78;;;;;;;18.17;61.71;100658.25;5036013;28;20433;-67
2022/10/15 04:34:03;;;;;;;116.68;50.28;;;;;;;18.16;61.92;100662.03;5033467;28;20505;-68
2022/10/15 04:36:29;;;;;;;125.78;51.65;;;;;;;18.38;61.11;100658.94;5033869;28;20060;-67
2022/10/15 04:38:54;;;;;;;131.07;53.90;;;;;;;18.21;62.17;100666.66;5033485;28;20095;-67
2022/10/15 04:41:20;;;;;;;128.38;52.83;;;;;;;18.17;63.00;100666.41;5033657;28;20041;-67
2022/10/15 04:43:45;;;;;;;135.75;54.67;;;;;;;18.13;62.81;100672.69;5034218;28;20025;-68
2022/10/15 04:46:11;;;;;;;129.98;53.35;;;;;;;18.24;62.92;100671.53;5033861;28;20044;-68
2022/10/15 04:48:37;;;;;;;126.60;52.58;;;;;;;18.03;63.70;100678.16;5033836;28;20065;-69
2022/10/15 04:51:14;;;;;;;125.50;53.80;;;;;;;18.41;62.21;100672.00;5033127;28;20045;-68
2022/10/15 04:53:40;;;;;;;119.85;52.05;;;;;;;18.55;62.05;100666.78;5033856;28;20039;-67
2022/10/15 04:56:09;;;;;;;141.38;58.20;;;;;;;18.08;63.81;100670.00;5034004;28;20465;-69
2022/10/15 04:58:35;;;;;;;118.15;54.72;;;;;;;17.88;64.41;100668.16;5033476;28;20455;-67
2022/10/15 05:01:05;;;;;;;140.75;55.47;;;;;;;18.34;63.03;100658.69;5033332;28;20057;-67
2022/10/15 05:03:31;;;;;;;127.68;55.03;;;;;;;18.07;63.94;100658.28;5031615;28;20537;-67
2022/10/15 05:06:02;;;;;;;139.52;55.55;;;;;;;18.51;62.65;100655.66;5033435;28;20532;-67
2022/10/15 05:08:29;;;;;;;120.35;52.05;;;;;;;18.05;63.61;100651.50;5033434;28;20032;-67
2022/10/15 05:10:54;;;;;;;122.10;55.33;;;;;;;18.51;62.35;100652.09;5033858;28;20087;-68
2022/10/15 05:13:19;;;;;;;121.00;54.33;;;;;;;18.74;61.64;100644.03;5033221;28;20034;-68
2022/10/15 05:15:45;;;;;;;125.57;55.30;;;;;;;18.58;62.24;100652.59;5033072;28;20042;-68
2022/10/15 05:18:11;;;;;;;125.88;54.25;;;;;;;18.37;62.98;100652.72;5033140;28;20493;-67
2022/10/15 05:20:36;;;;;;;130.73;55.63;;;;;;;18.16;63.86;100658.53;5033386;28;20041;-67
2022/10/15 05:23:03;;;;;;;137.95;53.63;;;;;;;18.38;63.51;100650.78;5033537;28;20041;-68
2022/10/15 05:25:28;;;;;;;131.50;54.58;;;;;;;18.52;62.40;100661.88;5032175;28;20112;-67
2022/10/15 05:27:54;;;;;;;120.20;53.17;;;;;;;18.57;62.63;100657.25;5034909;28;20168;-68
2022/10/15 05:30:20;;;;;;;132.57;54.72;;;;;;;18.60;62.76;100664.81;5032877;28;20037;-68
2022/10/15 05:32:45;;;;;;;126.18;52.88;;;;;;;18.65;62.36;100658.53;5032484;28;20040;-68
2022/10/15 05:35:10;;;;;;;125.43;52.50;;;;;;;18.47;62.31;100661.91;5033104;28;20029;-68
2022/10/15 05:37:36;;;;;;;121.60;53.25;;;;;;;17.89;65.01;100664.34;5032661;28;20041;-69
2022/10/15 05:40:03;;;;;;;133.77;53.60;;;;;;;18.38;63.16;100654.31;5032416;28;20049;-69
2022/10/15 05:42:28;;;;;;;120.65;48.97;;;;;;;18.42;63.10;100662.72;5032505;28;20037;-68
2022/10/15 05:44:54;;;;;;;122.10;54.47;;;;;;;18.44;63.42;100657.06;5032209;28;20060;-69
2022/10/15 05:47:19;;;;;;;135.52;53.53;;;;;;;18.56;63.06;100662.94;5032397;28;20092;-69
2022/10/15 05:49:45;;;;;;;126.88;55.25;;;;;;;18.69;61.86;100659.59;5032523;28;20398;-67
2022/10/15 05:52:10;;;;;;;125.90;51.45;;;;;;;18.33;63.22;100659.81;5032443;28;20100;-68
2022/10/15 05:54:35;;;;;;;112.22;51.58;;;;;;;18.65;62.62;100670.25;5032504;28;20044;-67
2022/10/15 05:57:01;;;;;;;102.63;49.63;;;;;;;18.93;61.71;100663.22;5032223;28;20060;-67
2022/10/15 05:59:26;;;;;;;109.63;51.38;;;;;;;18.58;63.03;100669.75;5032438;28;20041;-68
2022/10/15 06:01:52;;;;;;;115.90;52.63;;;;;;;18.48;62.75;100663.53;5032428;28;20100;-68
2022/10/15 06:04:17;;;;;;;109.30;51.78;;;;;;;18.42;63.36;100662.72;5031961;28;20063;-67
2022/10/15 06:06:42;;;;;;;105.53;51.22;;;;;;;17.61;65.83;100669.59;5032003;28;20037;-69
2022/10/15 06:09:08;;;;;;;122.43;53.75;;;;;;;18.62;62.71;100675.44;5032036;28;20037;-67
2022/10/15 06:11:35;;;;;;;111.95;53.03;;;;;;;18.78;62.73;100657.91;5031834;28;20040;-69
2022/10/15 06:14:00;;;;;;;105.85;49.95;;;;;;;18.85;62.02;100663.84;5032274;28;20065;-68
2022/10/15 06:16:26;;;;;;;118.90;52.75;;;;;;;18.92;62.12;100658.88;5032236;28;20042;-69
2022/10/15 06:18:52;;;;;;;108.90;52.55;;;;;;;18.53;63.34;100669.78;5031560;28;20493;-67
2022/10/15 06:21:17;;;;;;;111.28;52.22;;;;;;;18.61;63.00;100663.75;5032006;28;20073;-68
2022/10/15 06:23:44;;;;;;;106.28;53.17;;;;;;;18.61;63.37;100661.03;5033934;28;20041;-68
2022/10/15 06:26:10;;;;;;;111.45;50.80;;;;;;;18.59;63.22;100660.50;5031981;28;20331;-67
2022/10/15 06:28:36;;;;;;;117.65;53.60;;;;;;;18.29;64.33;100661.44;5031775;28;20033;-68
2022/10/15 06:31:02;;;;;;;125.20;55.25;;;;;;;18.22;65.14;100651.97;5031650;28;20567;-68
2022/10/15 06:33:28;;;;;;;132.77;56.08;;;;;;;18.46;64.40;100652.13;5031575;28;20045;-68
2022/10/15 06:35:54;;;;;;;117.50;56.60;;;;;;;18.21;65.43;100664.75;5031419;28;20079;-69
2022/10/15 06:38:19;;;;;;;129.90;57.53;;;;;;;18.42;64.32;100666.31;5031798;28;20025;-70
2022/10/15 06:40:45;;;;;;;134.40;58.10;;;;;;;18.24;65.71;100671.53;5031784;28;20029;-68
2022/10/15 06:43:11;;;;;;;128.18;60.28;;;;;;;18.25;66.02;100667.72;5031242;28;20033;-67
2022/10/15 06:45:38;;;;;;;139.07;61.53;;;;;;;18.26;65.58;100670.16;5031438;28;20037;-68
2022/10/15 06:48:05;;;;;;;143.65;60.08;;;;;;;18.50;64.80;100667.59;5031496;28;20494;-67
2022/10/15 06:50:32;;;;;;;134.32;60.60;;;;;;;18.84;63.97;100670.38;5030790;28;20040;-68
2022/10/15 06:52:57;;;;;;;139.95;59.78;;;;;;;19.11;62.49;100663.34;5031670;28;20568;-67
2022/10/15 06:55:23;;;;;;;151.95;60.97;;;;;;;19.28;62.69;100663.72;5031008;28;20057;-68
2022/10/15 06:57:49;;;;;;;138.25;60.70;;;;;;;19.27;62.37;100666.75;5031212;28;20029;-70
2022/10/15 07:00:14;;;;;;;126.50;59.28;;;;;;;19.35;62.25;100668.88;5031175;28;20095;-66
2022/10/15 07:02:40;;;;;;;155.20;61.97;;;;;;;18.92;63.34;100673.31;5031105;28;20430;-68
2022/10/15 07:05:06;;;;;;;148.07;62.92;;;;;;;19.18;63.34;100661.09;5031308;28;20123;-66
2022/10/15 07:07:31;;;;;;;143.07;62.72;;;;;;;19.36;62.75;100669.72;5030773;28;20494;-68
2022/10/15 07:09:56;;;;;;;146.35;60.25;;;;;;;19.36;62.26;100662.31;5030753;28;20050;-68
2022/10/15 07:12:22;;;;;;;136.95;60.22;;;;;;;18.89;64.66;100670.31;5030728;28;20033;-68
2022/10/15 07:14:48;;;;;;;143.77;59.63;;;;;;;19.21;63.95;100670.63;5030674;28;20038;-69
2022/10/15 07:17:14;;;;;;;150.35;63.10;;;;;;;18.34;66.56;100657.88;5030951;28;20121;-68
2022/10/15 07:19:39;;;;;;;161.82;65.20;;;;;;;18.83;65.55;100664.13;5032638;28;20406;-68
2022/10/15 07:22:04;;;;;;;151.82;63.85;;;;;;;18.61;66.62;100669.19;5030799;28;20037;-67
2022/10/15 07:24:30;;;;;;;163.85;67.90;;;;;;;18.90;65.29;100669.25;5030828;28;20261;-67
2022/10/15 07:26:55;;;;;;;164.00;68.05;;;;;;;19.27;64.86;100673.03;5030225;28;20045;-67
2022/10/15 07:29:21;;;;;;;158.93;67.82;;;;;;;18.80;66.17;100664.69;5030559;28;20103;-68
2022/10/15 07:31:46;;;;;;;161.68;66.53;;;;;;;18.90;66.17;100675.50;5030927;28;20022;-68
2022/10/15 07:34:11;;;;;;;163.93;65.35;;;;;;;18.54;67.46;100676.84;5030649;28;20037;-68
2022/10/15 07:36:37;;;;;;;164.52;67.55;;;;;;;19.42;64.11;100669.34;5030394;28;20045;-68
2022/10/15 07:39:02;;;;;;;169.18;69.53;;;;;;;18.89;66.58;100678.50;5030365;28;20038;-69
2022/10/15 07:41:30;;;;;;;159.70;64.43;;;;;;;19.31;64.81;100667.81;5030588;28;20033;-70
2022/10/15 07:43:55;;;;;;;151.48;62.33;;;;;;;18.00;70.49;100674.09;5030955;28;20030;-67
2022/10/15 07:46:20;;;;;;;165.25;66.50;;;;;;;18.84;66.93;100675.81;5031092;28;20275;-69
2022/10/15 07:48:46;;;;;;;165.82;63.80;;;;;;;18.94;66.69;100679.28;5036835;28;20040;-70
2022/10/15 07:51:11;;;;;;;141.10;60.20;;;;;;;19.25;66.16;100686.13;5034881;28;20033;-67
2022/10/15 07:53:37;;;;;;;139.70;61.65;;;;;;;19.13;66.49;100687.56;5034830;28;20409;-68
2022/10/15 07:56:09;;;;;;;148.82;58.10;;;;;;;19.15;66.03;100688.09;5035254;28;20040;-69
2022/10/15 07:58:37;;;;;;;131.82;54.20;;;;;;;19.21;66.45;100678.78;5035142;28;20116;-66
2022/10/15 08:01:07;;;;;;;133.25;57.53;;;;;;;18.96;67.56;100684.44;5034776;28;20025;-68
2022/10/15 08:03:32;;;;;;;130.50;56.20;;;;;;;19.42;64.90;100685.69;5034509;28;20041;-69
2022/10/15 08:06:03;;;;;;;134.07;58.35;;;;;;;18.31;70.45;100685.66;5033830;28;20531;-68
2022/10/15 08:08:29;;;;;;;113.05;51.67;;;;;;;19.20;66.87;100685.34;5032971;28;20037;-68
2022/10/15 08:10:54;;;;;;;117.10;50.92;;;;;;;19.04;67.20;100686.56;5035391;28;20397;-68
2022/10/15 08:13:20;;;;;;;111.28;50.65;;;;;;;18.60;68.78;100683.88;5034942;28;20034;-67
2022/10/15 08:15:46;;;;;;;102.75;48.75;;;;;;;19.60;65.83;100684.16;5032539;28;20590;-68
2022/10/15 08:18:12;;;;;;;98.82;47.97;;;;;;;19.45;66.05;100682.41;5034967;28;20044;-68
2022/10/15 08:20:38;;;;;;;108.32;46.55;;;;;;;18.13;69.99;100681.66;5035062;28;20516;-68
2022/10/15 08:23:04;;;;;;;97.20;48.30;;;;;;;19.63;65.49;100672.69;5035523;28;20033;-68
2022/10/15 08:25:31;;;;;;;94.35;47.47;;;;;;;19.97;64.22;100674.19;5034775;28;20045;-69
2022/10/15 08:27:57;;;;;;;82.50;42.22;;;;;;;20.22;63.31;100675.84;5035188;28;20179;-69
2022/10/15 08:30:22;;;;;;;73.22;40.22;;;;;;;19.36;65.73;100673.22;5034355;28;20049;-68
2022/10/15 08:32:47;;;;;;;70.63;39.30;;;;;;;20.17;63.33;100660.31;5035181;28;20034;-68
2022/10/15 08:35:13;;;;;;;68.88;37.97;;;;;;;20.58;61.79;100659.78;5035440;28;20044;-69
2022/10/15 08:37:38;;;;;;;68.95;37.15;;;;;;;19.22;66.49;100664.09;5035001;28;20040;-68
2022/10/15 08:40:05;;;;;;;70.47;37.38;;;;;;;19.87;64.55;100657.94;5034553;28;20037;-69
2022/10/15 08:42:40;;;;;;;67.05;35.15;;;;;;;20.23;62.98;100663.00;5034771;28;20037;-69
2022/10/15 08:45:18;;;;;;;62.97;36.95;;;;;;;20.65;62.12;100658.31;5035295;28;20080;-68
2022/10/15 08:47:52;;;;;;;65.60;34.60;;;;;;;20.60;62.35;100652.13;5034413;28;20468;-67
2022/10/15 08:50:40;;;;;;;61.58;32.50;;;;;;;20.93;61.37;100653.78;5035629;28;20040;-74
2022/10/15 08:53:12;;;;;;;62.15;32.80;;;;;;;20.59;63.01;100656.75;5036473;28;20260;-69
2022/10/15 08:55:41;;;;;;;51.08;30.77;;;;;;;21.10;61.13;100654.06;5034932;28;20052;-69
2022/10/15 08:59:07;;;;;;;53.28;31.48;;;;;;;20.90;62.35;100649.72;5034143;28;20037;-69
2022/10/15 09:01:42;;;;;;;52.10;30.40;;;;;;;20.94;61.35;100652.66;4971089;28;20566;-70
2022/10/15 09:04:20;;;;;;;48.67;28.27;;;;;;;21.07;61.84;100643.72;4971914;28;20034;-70
2022/10/15 09:06:51;;;;;;;49.83;28.65;;;;;;;20.51;63.18;100645.69;4971593;28;20039;-68
2022/10/15 09:09:30;;;;;;;49.40;26.30;;;;;;;20.76;62.15;100637.09;4971753;28;20056;-70
2022/10/15 09:12:17;;;;;;;44.15;25.80;;;;;;;20.85;62.17;100624.41;4971242;28;20035;-69
2022/10/15 09:14:45;;;;;;;46.17;25.60;;;;;;;21.06;61.54;100639.38;4952440;28;20127;-71
2022/10/15 09:17:23;;;;;;;40.50;26.40;;;;;;;21.09;61.28;100648.91;4952911;29;20047;-69
2022/10/15 09:19:52;;;;;;;43.90;26.33;;;;;;;20.72;61.73;100645.09;4973760;28;20515;-69
2022/10/15 09:22:23;;;;;;;41.80;24.55;;;;;;;20.76;62.85;100651.56;4990701;28;20048;-69
2022/10/15 09:24:48;;;;;;;45.38;24.80;;;;;;;21.29;60.86;100649.34;4991085;28;20119;-70
2022/10/15 09:27:27;;;;;;;43.65;25.38;;;;;;;20.57;62.50;100652.69;4990711;28;20045;-70
2022/10/15 09:30:22;;;;;;;43.58;25.33;;;;;;;21.68;60.34;100636.03;4990933;28;20529;-70
2022/10/15 09:32:59;;;;;;;47.80;27.75;;;;;;;21.07;61.48;100635.50;5042939;28;20056;-67
2022/10/15 09:35:35;;;;;;;45.55;28.00;;;;;;;21.47;61.13;100623.88;5052822;28;20444;-67
2022/10/15 09:38:19;;;;;;;45.85;26.80;;;;;;;21.51;60.57;100624.88;5053013;28;20028;-68
2022/10/15 09:40:44;;;;;;;45.80;27.20;;;;;;;21.21;61.62;100625.44;5052343;28;20408;-70
2022/10/15 09:43:11;;;;;;;46.80;28.98;;;;;;;21.49;60.67;100612.63;5052431;28;20033;-70
2022/10/15 09:45:37;;;;;;;45.10;28.08;;;;;;;21.34;60.81;100616.47;5052482;28;20045;-68
2022/10/15 09:48:13;;;;;;;47.28;30.10;;;;;;;21.51;61.13;100624.88;5052479;28;20045;-69
2022/10/15 09:50:43;;;;;;;45.72;27.92;;;;;;;21.78;60.50;100610.38;5040057;28;20041;-69
2022/10/15 09:53:22;;;;;;;44.40;27.87;;;;;;;21.59;61.05;100617.91;5032745;28;20041;-68
2022/10/15 09:56:11;;;;;;;38.25;26.00;;;;;;;20.57;63.33;100618.03;5032103;28;20053;-69
2022/10/15 09:59:03;;;;;;;40.00;25.13;;;;;;;20.73;62.71;100611.22;5030917;28;20470;-70
2022/10/15 10:01:31;;;;;;;35.60;24.77;;;;;;;20.77;62.97;100605.97;5029146;28;20065;-68
2022/10/15 10:04:16;;;;;;;41.55;25.70;;;;;;;20.95;63.04;100610.59;5031386;28;20064;-70
2022/10/15 10:06:50;;;;;;;36.30;25.05;;;;;;;20.77;62.95;100612.25;5031135;28;20505;-71
2022/10/15 10:09:30;;;;;;;37.95;23.92;;;;;;;21.04;63.02;100619.72;5031321;28;20045;-71
2022/10/15 10:12:02;;;;;;;37.53;23.25;;;;;;;20.53;63.33;100614.25;5030942;28;20042;-70
2022/10/15 10:14:44;;;;;;;31.38;20.52;;;;;;;20.65;62.36;100598.22;5046215;28;20032;-68
2022/10/15 10:17:21;;;;;;;30.48;21.00;;;;;;;20.68;62.64;100589.44;5035478;28;20033;-69
2022/10/15 10:20:08;;;;;;;27.85;20.60;;;;;;;21.04;61.46;100588.84;5032220;28;20136;-69
2022/10/15 10:22:49;;;;;;;28.00;19.50;;;;;;;21.16;61.01;100583.72;5031800;28;20060;-68
2022/10/15 10:25:28;;;;;;;26.98;18.65;;;;;;;22.01;59.00;100573.81;5032028;28;20557;-68
2022/10/15 10:28:05;;;;;;;22.63;15.90;;;;;;;21.49;59.75;100568.88;5031394;28;20045;-69
2022/10/15 10:30:35;;;;;;;22.70;16.17;;;;;;;21.90;59.23;100560.66;5032391;28;20561;-69
2022/10/15 10:33:01;;;;;;;21.77;17.20;;;;;;;22.77;57.92;100566.56;5031589;28;20509;-68
2022/10/15 10:35:43;;;;;;;30.15;17.90;;;;;;;22.62;58.29;100570.50;5031886;28;20273;-68
2022/10/15 10:38:20;;;;;;;23.92;17.60;;;;;;;22.51;57.98;100575.38;5013589;28;20511;-75
2022/10/15 10:40:50;;;;;;;33.42;18.88;;;;;;;21.87;58.81;100564.00;5031460;28;20084;-69
2022/10/15 10:43:15;;;;;;;20.92;16.90;;;;;;;21.67;60.25;100559.75;5031363;28;20053;-69
2022/10/15 10:45:57;;;;;;;27.05;17.83;;;;;;;22.09;58.65;100566.81;5031605;28;20620;-69
2022/10/15 10:48:44;;;;;;;22.27;17.42;;;;;;;22.07;59.11;100566.31;5031305;28;20091;-68
2022/10/15 10:51:11;;;;;;;23.63;17.17;;;;;;;22.07;58.75;100544.41;5030788;28;20038;-68
2022/10/15 10:54:15;;;;;;;24.52;17.52;;;;;;;22.21;59.13;100545.19;5031350;28;20083;-70
2022/10/15 10:56:44;;;;;;;27.40;16.17;;;;;;;22.48;58.28;100545.09;4950101;29;20275;-68
2022/10/15 10:59:15;;;;;;;22.35;16.50;;;;;;;22.36;58.70;100545.63;4950379;29;20035;-67
2022/10/15 11:01:40;;;;;;;22.67;16.45;;;;;;;22.41;58.93;100550.16;4950427;29;20106;-68
2022/10/15 11:04:26;;;;;;;24.73;17.60;;;;;;;22.68;58.62;100533.66;4950115;28;20066;-69
2022/10/15 11:07:05;;;;;;;25.92;18.08;;;;;;;22.22;59.32;100544.06;4949385;28;20047;-69
2022/10/15 11:09:43;;;;;;;25.65;17.48;;;;;;;22.50;58.93;100542.84;4959436;28;20071;-69
2022/10/15 11:12:29;;;;;;;23.45;16.40;;;;;;;22.57;59.23;100535.00;4969300;28;20250;-70
2022/10/15 11:15:18;;;;;;;23.02;15.82;;;;;;;22.63;59.68;100537.31;4954081;28;20099;-68
2022/10/15 11:18:08;;;;;;;28.60;16.85;;;;;;;21.73;61.29;100536.66;4957213;28;20040;-69
2022/10/15 11:20:58;;;;;;;24.27;15.13;;;;;;;22.79;58.78;100532.25;4950697;28;20043;-70